createdAt,value
2023-03-06T00:00:57.076Z,3.40
2023-03-06T00:03:24.319Z,2.53
2023-03-06T00:05:50.982Z,2.90
2023-03-06T00:08:17.575Z,2.65
2023-03-06T00:10:44.601Z,2.60
2023-03-06T00:13:13.633Z,2.40
2023-03-06T00:15:41.153Z,2.70
2023-03-06T00:18:08.222Z,2.75
2023-03-06T00:20:35.484Z,2.90
2023-03-06T00:23:02.897Z,2.55
2023-03-06T00:25:29.449Z,3.00
2023-03-06T00:27:56.193Z,3.00
2023-03-06T00:30:24.664Z,2.75
2023-03-06T00:32:52.892Z,3.13
2023-03-06T00:35:19.718Z,3.20
2023-03-06T00:37:46.333Z,3.08
2023-03-06T00:40:19.847Z,3.30
2023-03-06T00:42:46.793Z,3.55
2023-03-06T00:45:14.446Z,3.30
2023-03-06T00:47:41.521Z,3.33
2023-03-06T00:50:09.325Z,3.10
2023-03-06T00:52:36.189Z,3.78
2023-03-06T00:55:02.952Z,3.30
2023-03-06T00:57:30.286Z,3.40
2023-03-06T00:59:56.763Z,3.42
2023-03-06T01:02:23.353Z,3.45
2023-03-06T01:04:49.962Z,3.58
2023-03-06T01:07:16.795Z,5.25
2023-03-06T01:09:44.233Z,5.22
2023-03-06T01:12:10.784Z,4.65
2023-03-06T01:14:37.455Z,5.22
2023-03-06T01:17:04.281Z,4.50
2023-03-06T01:19:30.977Z,4.53
2023-03-06T01:21:57.572Z,4.75
2023-03-06T01:24:25.829Z,4.55
2023-03-06T01:26:52.742Z,4.32
2023-03-06T01:29:19.328Z,4.80
2023-03-06T01:31:45.981Z,5.15
2023-03-06T01:34:12.593Z,4.68
2023-03-06T01:36:39.422Z,4.18
2023-03-06T01:39:06.094Z,4.22
2023-03-06T01:41:32.989Z,3.80
2023-03-06T01:43:59.768Z,3.25
2023-03-06T01:46:30.270Z,3.67
2023-03-06T01:49:01.049Z,3.63
2023-03-06T01:51:32.683Z,3.63
2023-03-06T01:54:02.913Z,3.60
2023-03-06T01:56:29.845Z,3.53
2023-03-06T01:58:58.458Z,3.50
2023-03-06T02:01:25.919Z,4.18
2023-03-06T02:03:52.933Z,3.53
2023-03-06T02:06:21.898Z,3.67
2023-03-06T02:08:51.699Z,3.90
2023-03-06T02:11:25.782Z,3.30
2023-03-06T02:13:57.834Z,4.50
2023-03-06T02:16:27.894Z,4.03
2023-03-06T02:18:55.281Z,3.85
2023-03-06T02:21:26.143Z,3.60
2023-03-06T02:24:08.794Z,4.30
2023-03-06T02:26:37.577Z,4.07
2023-03-06T02:29:04.610Z,3.47
2023-03-06T02:31:33.722Z,3.53
2023-03-06T02:34:16.754Z,3.97
2023-03-06T02:36:47.599Z,4.05
2023-03-06T02:39:16.176Z,4.20
2023-03-06T02:41:42.754Z,3.80
2023-03-06T02:44:09.306Z,4.10
2023-03-06T02:46:36.175Z,3.95
2023-03-06T02:49:02.822Z,4.40
2023-03-06T02:51:29.319Z,3.60
2023-03-06T02:53:55.860Z,4.43
2023-03-06T02:56:22.884Z,4.15
2023-03-06T02:58:49.418Z,3.95
2023-03-06T03:01:16.284Z,4.45
2023-03-06T03:03:42.866Z,3.90
2023-03-06T03:06:09.376Z,4.20
2023-03-06T03:08:36.319Z,4.53
2023-03-06T03:11:04.318Z,4.53
2023-03-06T03:13:30.851Z,4.72
2023-03-06T03:16:01.148Z,4.60
2023-03-06T03:18:28.136Z,4.80
2023-03-06T03:20:55.321Z,3.92
2023-03-06T03:23:22.854Z,3.55
2023-03-06T03:25:50.114Z,11.32
2023-03-06T03:28:17.361Z,5.47
2023-03-06T03:30:43.985Z,4.63
2023-03-06T03:33:11.359Z,4.25
2023-03-06T03:35:38.068Z,4.30
2023-03-06T03:38:04.998Z,3.83
2023-03-06T03:40:31.583Z,4.65
2023-03-06T03:42:58.339Z,4.85
2023-03-06T03:45:27.757Z,4.68
2023-03-06T03:47:54.257Z,4.43
2023-03-06T03:50:20.810Z,4.45
2023-03-06T03:52:47.436Z,5.05
2023-03-06T03:55:14.098Z,4.15
2023-03-06T03:57:40.610Z,4.20
2023-03-06T04:00:08.179Z,4.20
2023-03-06T04:02:34.774Z,4.07
2023-03-06T04:05:01.500Z,4.68
2023-03-06T04:07:28.162Z,5.40
2023-03-06T04:09:54.823Z,5.35
2023-03-06T04:12:21.399Z,4.63
2023-03-06T04:14:47.920Z,4.70
2023-03-06T04:17:14.460Z,5.22
2023-03-06T04:19:40.984Z,5.28
2023-03-06T04:22:07.490Z,4.72
2023-03-06T04:24:34.039Z,4.97
2023-03-06T04:27:00.691Z,4.18
2023-03-06T04:29:27.303Z,4.75
2023-03-06T04:31:53.931Z,5.45
2023-03-06T04:34:20.436Z,5.30
2023-03-06T04:36:46.988Z,5.55
2023-03-06T04:39:14.670Z,5.32
2023-03-06T04:41:42.375Z,5.05
2023-03-06T04:44:09.020Z,5.82
2023-03-06T04:46:36.661Z,5.30
2023-03-06T04:49:04.154Z,5.20
2023-03-06T04:51:30.988Z,5.00
2023-03-06T04:53:57.497Z,5.10
2023-03-06T04:56:24.336Z,4.88
2023-03-06T04:58:50.968Z,4.72
2023-03-06T05:01:17.536Z,4.38
2023-03-06T05:03:44.040Z,4.63
2023-03-06T05:06:10.663Z,5.10
2023-03-06T05:08:37.214Z,4.00
2023-03-06T05:11:04.083Z,5.05
2023-03-06T05:13:30.594Z,5.18
2023-03-06T05:16:02.871Z,5.20
2023-03-06T05:18:29.464Z,5.30
2023-03-06T05:21:00.120Z,4.78
2023-03-06T05:23:28.096Z,4.97
2023-03-06T05:25:54.765Z,5.10
2023-03-06T05:28:21.384Z,5.90
2023-03-06T05:30:48.099Z,5.07
2023-03-06T05:33:16.494Z,5.07
2023-03-06T05:35:47.963Z,5.18
2023-03-06T05:38:16.054Z,4.80
2023-03-06T05:40:43.936Z,5.80
2023-03-06T05:43:11.977Z,6.30
2023-03-06T05:45:39.975Z,6.07
2023-03-06T05:48:07.500Z,5.80
2023-03-06T05:50:34.179Z,6.32
2023-03-06T05:53:01.510Z,5.88
2023-03-06T05:55:29.664Z,5.63
2023-03-06T05:57:56.213Z,6.90
2023-03-06T06:00:23.227Z,5.13
2023-03-06T06:02:49.791Z,5.10
2023-03-06T06:05:16.458Z,5.63
2023-03-06T06:07:43.142Z,5.97
2023-03-06T06:10:11.409Z,5.60
2023-03-06T06:12:38.011Z,5.85
2023-03-06T06:15:06.599Z,5.43
2023-03-06T06:17:33.295Z,5.32
2023-03-06T06:19:59.903Z,5.65
2023-03-06T06:22:26.446Z,5.28
2023-03-06T06:24:53.030Z,5.32
2023-03-06T06:27:19.519Z,4.97
2023-03-06T06:29:46.005Z,6.57
2023-03-06T06:32:12.515Z,5.38
2023-03-06T06:34:39.040Z,5.47
2023-03-06T06:37:08.140Z,5.13
2023-03-06T06:39:34.659Z,5.55
2023-03-06T06:42:21.705Z,5.18
2023-03-06T06:44:48.938Z,6.65
2023-03-06T06:47:23.113Z,6.03
2023-03-06T06:49:54.953Z,6.40
2023-03-06T06:52:22.399Z,7.03
2023-03-06T06:54:48.942Z,8.93
2023-03-06T06:57:15.985Z,14.02
2023-03-06T06:59:42.734Z,8.38
2023-03-06T07:02:13.351Z,6.78
2023-03-06T07:04:52.284Z,7.10
2023-03-06T07:07:28.533Z,6.47
2023-03-06T07:09:55.541Z,5.45
2023-03-06T07:12:22.264Z,6.05
2023-03-06T07:14:48.774Z,5.18
2023-03-06T07:17:16.699Z,5.25
2023-03-06T07:19:43.260Z,6.95
2023-03-06T07:22:09.909Z,5.68
2023-03-06T07:24:36.469Z,5.95
2023-03-06T07:27:03.030Z,7.78
2023-03-06T07:29:29.642Z,9.50
2023-03-06T07:31:56.293Z,9.30
2023-03-06T07:34:22.859Z,10.00
2023-03-06T07:36:53.344Z,10.20
2023-03-06T07:39:19.933Z,8.93
2023-03-06T07:41:46.414Z,8.57
2023-03-06T07:44:12.921Z,7.55
2023-03-06T07:46:39.571Z,8.35
2023-03-06T07:49:06.177Z,7.32
2023-03-06T07:51:32.814Z,7.63
2023-03-06T07:53:59.464Z,7.30
2023-03-06T07:56:26.060Z,7.13
2023-03-06T07:58:52.657Z,6.57
2023-03-06T08:01:23.638Z,7.38
2023-03-06T08:03:50.518Z,9.55
2023-03-06T08:06:20.883Z,9.88
2023-03-06T08:08:49.476Z,7.07
2023-03-06T08:11:18.890Z,7.15
2023-03-06T08:13:52.793Z,6.85
2023-03-06T08:16:27.126Z,6.30
2023-03-06T08:18:53.995Z,6.38
2023-03-06T08:21:23.805Z,6.88
2023-03-06T08:23:50.980Z,6.05
2023-03-06T08:26:20.647Z,6.50
2023-03-06T08:28:47.774Z,5.95
2023-03-06T08:31:27.326Z,5.47
2023-03-06T08:33:55.025Z,5.72
2023-03-06T08:36:21.871Z,5.35
2023-03-06T08:38:48.524Z,5.18
2023-03-06T08:41:15.132Z,5.90
2023-03-06T08:43:41.786Z,7.18
2023-03-06T08:46:08.336Z,6.72
2023-03-06T08:48:38.364Z,6.85
2023-03-06T08:51:05.848Z,6.63
2023-03-06T08:53:42.727Z,6.97
2023-03-06T08:56:22.758Z,7.40
2023-03-06T08:58:50.016Z,6.43
2023-03-06T09:01:18.858Z,7.22
2023-03-06T09:03:45.858Z,7.53
2023-03-06T09:06:13.636Z,6.45
2023-03-06T09:08:43.204Z,7.10
2023-03-06T09:11:15.014Z,7.40
2023-03-06T09:13:43.111Z,6.80
2023-03-06T09:16:11.212Z,7.35
2023-03-06T09:18:37.933Z,7.15
2023-03-06T09:21:06.037Z,7.07
2023-03-06T09:23:32.755Z,7.35
2023-03-06T09:26:00.712Z,7.03
2023-03-06T09:28:27.679Z,5.90
2023-03-06T09:30:54.889Z,5.25
2023-03-06T09:33:22.260Z,4.88
2023-03-06T09:35:52.162Z,5.75
2023-03-06T09:38:20.862Z,5.65
2023-03-06T09:41:02.736Z,6.40
2023-03-06T09:43:35.477Z,5.97
2023-03-06T09:46:13.716Z,5.47
2023-03-06T09:48:46.537Z,5.90
2023-03-06T09:51:17.020Z,6.57
2023-03-06T09:53:56.801Z,5.15
2023-03-06T09:56:31.188Z,4.63
2023-03-06T09:59:20.870Z,4.95
2023-03-06T10:02:40.269Z,5.30
2023-03-06T10:05:13.414Z,4.90
2023-03-06T10:07:47.978Z,5.45
2023-03-06T10:10:24.296Z,5.35
2023-03-06T10:13:06.487Z,5.50
2023-03-06T10:15:36.270Z,5.30
2023-03-06T10:18:04.558Z,5.30
2023-03-06T10:20:58.300Z,5.00
2023-03-06T10:23:52.311Z,6.25
2023-03-06T10:26:28.069Z,5.15
2023-03-06T10:29:08.975Z,5.35
2023-03-06T10:31:37.441Z,4.78
2023-03-06T10:34:24.423Z,5.43
2023-03-06T10:36:51.139Z,5.93
2023-03-06T10:39:21.173Z,5.95
2023-03-06T10:41:48.906Z,5.28
2023-03-06T10:44:15.464Z,5.40
2023-03-06T10:46:44.739Z,5.28
2023-03-06T10:49:14.120Z,5.70
2023-03-06T10:52:07.029Z,5.57
2023-03-06T10:54:39.148Z,4.88
2023-03-06T10:57:25.208Z,5.18
2023-03-06T10:59:53.629Z,5.18
2023-03-06T11:02:39.475Z,4.88
2023-03-06T11:05:18.117Z,5.88
2023-03-06T11:07:59.519Z,6.32
2023-03-06T11:10:27.628Z,5.57
2023-03-06T11:15:30.079Z,6.13
2023-03-06T11:18:24.873Z,6.15
2023-03-06T11:20:53.674Z,6.57
2023-03-06T11:23:35.155Z,6.07
2023-03-06T11:26:16.824Z,6.20
2023-03-06T11:28:48.450Z,5.68
2023-03-06T11:31:26.973Z,5.38
2023-03-06T11:34:07.085Z,6.28
2023-03-06T11:36:58.723Z,5.88
2023-03-06T11:39:32.982Z,6.20
2023-03-06T11:42:09.559Z,5.95
2023-03-06T11:44:45.670Z,5.82
2023-03-06T11:47:36.791Z,6.93
2023-03-06T11:50:25.631Z,6.18
2023-03-06T11:53:00.010Z,5.82
2023-03-06T11:56:07.641Z,5.60
2023-03-06T11:58:53.832Z,5.40
2023-03-06T12:01:29.343Z,5.72
2023-03-06T12:04:26.904Z,5.35
2023-03-06T12:07:23.671Z,5.75
2023-03-06T12:09:56.257Z,5.88
2023-03-06T12:12:42.088Z,7.30
2023-03-06T12:15:08.866Z,6.63
2023-03-06T12:17:50.360Z,5.65
2023-03-06T12:20:44.300Z,5.22
2023-03-06T12:23:16.951Z,6.13
2023-03-06T12:25:47.436Z,5.93
2023-03-06T12:28:23.523Z,6.13
2023-03-06T12:31:14.352Z,5.30
2023-03-06T12:33:49.871Z,6.10
2023-03-06T12:36:28.521Z,5.93
2023-03-06T12:38:57.815Z,6.22
2023-03-06T12:41:39.579Z,6.35
2023-03-06T12:44:15.131Z,6.68
2023-03-06T12:46:49.668Z,6.68
2023-03-06T12:49:32.829Z,6.78
2023-03-06T12:52:01.311Z,6.88
2023-03-06T12:54:31.143Z,7.25
2023-03-06T12:56:59.965Z,7.55
2023-03-06T12:59:38.448Z,6.80
2023-03-06T13:02:14.146Z,7.03
2023-03-06T13:04:50.911Z,6.40
2023-03-06T13:07:52.797Z,6.28
2023-03-06T13:10:25.894Z,6.25
2023-03-06T13:13:00.784Z,6.97
2023-03-06T13:17:57.339Z,6.20
2023-03-06T13:20:26.755Z,6.05
2023-03-06T13:22:53.353Z,6.35
2023-03-06T13:25:19.967Z,6.78
2023-03-06T13:27:59.053Z,6.97
2023-03-06T13:30:43.206Z,7.07
2023-03-06T13:33:37.225Z,6.85
2023-03-06T13:36:27.512Z,6.68
2023-03-06T13:39:01.119Z,6.18
2023-03-06T13:41:37.591Z,6.43
2023-03-06T13:44:24.572Z,6.07
2023-03-06T13:47:05.309Z,6.45
2023-03-06T13:49:33.262Z,5.55
2023-03-06T13:52:10.928Z,4.63
2023-03-06T13:54:46.409Z,5.32
2023-03-06T13:57:31.033Z,5.78
2023-03-06T14:00:17.009Z,5.38
2023-03-06T14:03:05.372Z,5.57
2023-03-06T14:05:49.741Z,6.18
2023-03-06T14:08:27.213Z,5.97
2023-03-06T14:11:08.809Z,7.03
2023-03-06T14:13:47.483Z,7.35
2023-03-06T14:16:29.067Z,7.07
2023-03-06T14:18:58.938Z,7.95
2023-03-06T14:21:36.875Z,7.88
2023-03-06T14:24:05.155Z,8.95
2023-03-06T14:26:44.959Z,9.00
2023-03-06T14:29:23.068Z,7.95
2023-03-06T14:31:52.034Z,8.63
2023-03-06T14:34:24.643Z,7.88
2023-03-06T14:36:53.721Z,7.32
2023-03-06T14:39:39.493Z,8.07
2023-03-06T14:42:18.178Z,8.15
2023-03-06T14:44:46.109Z,8.18
2023-03-06T14:47:22.201Z,8.10
2023-03-06T14:50:18.423Z,8.27
2023-03-06T14:52:45.183Z,7.72
2023-03-06T14:55:17.663Z,7.85
2023-03-06T14:57:44.795Z,7.53
2023-03-06T15:00:18.305Z,7.88
2023-03-06T15:02:50.565Z,7.55
2023-03-06T15:05:29.765Z,7.25
2023-03-06T15:08:02.023Z,9.32
2023-03-06T15:10:31.543Z,9.77
2023-03-06T15:13:22.173Z,8.75
2023-03-06T15:16:06.221Z,8.48
2023-03-06T15:18:39.261Z,7.78
2023-03-06T15:21:27.518Z,8.45
2023-03-06T15:23:56.709Z,8.88
2023-03-06T15:26:32.687Z,8.43
2023-03-06T15:29:10.307Z,8.85
2023-03-06T15:31:39.335Z,10.70
2023-03-06T15:34:11.559Z,9.10
2023-03-06T15:36:46.717Z,9.30
2023-03-06T15:39:38.098Z,9.90
2023-03-06T15:42:16.446Z,9.85
2023-03-06T15:44:43.055Z,10.25
2023-03-06T15:47:11.827Z,10.05
2023-03-06T15:49:42.529Z,10.73
2023-03-06T15:52:09.871Z,9.45
2023-03-06T15:54:36.913Z,10.00
2023-03-06T15:57:06.103Z,9.52
2023-03-06T15:59:37.743Z,10.10
2023-03-06T16:02:14.127Z,10.15
2023-03-06T16:04:40.725Z,9.65
2023-03-06T16:07:07.296Z,11.10
2023-03-06T16:09:33.939Z,10.25
2023-03-06T16:12:00.556Z,10.25
2023-03-06T16:14:27.370Z,10.07
2023-03-06T16:16:54.761Z,10.75
2023-03-06T16:19:26.501Z,10.73
2023-03-06T16:21:55.038Z,10.90
2023-03-06T16:24:21.991Z,10.05
2023-03-06T16:26:53.487Z,10.30
2023-03-06T16:29:23.065Z,11.23
2023-03-06T16:31:50.019Z,17.38
2023-03-06T16:34:19.813Z,10.68
2023-03-06T16:36:48.397Z,11.13
2023-03-06T16:39:16.520Z,10.13
2023-03-06T16:41:43.147Z,11.13
2023-03-06T16:44:10.579Z,11.95
2023-03-06T16:46:40.380Z,12.07
2023-03-06T16:49:07.294Z,11.13
2023-03-06T16:51:34.086Z,11.82
2023-03-06T16:54:00.715Z,10.38
2023-03-06T16:56:27.327Z,11.25
2023-03-06T16:58:53.910Z,11.45
2023-03-06T17:01:20.614Z,10.73
2023-03-06T17:03:47.241Z,11.30
2023-03-06T17:06:19.038Z,10.98
2023-03-06T17:08:46.309Z,10.73
2023-03-06T17:11:13.837Z,13.10
2023-03-06T17:13:40.716Z,10.93
2023-03-06T17:16:09.551Z,11.68
2023-03-06T17:18:36.219Z,11.30
2023-03-06T17:21:02.927Z,11.55
2023-03-06T17:23:30.439Z,11.25
2023-03-06T17:26:08.759Z,12.23
2023-03-06T17:28:37.012Z,13.73
2023-03-06T17:31:11.920Z,12.55
2023-03-06T17:36:05.299Z,12.48
2023-03-06T17:38:31.850Z,13.25
2023-03-06T17:41:03.840Z,12.38
2023-03-06T17:43:31.142Z,11.88
2023-03-06T17:45:58.019Z,12.10
2023-03-06T17:48:24.519Z,12.45
2023-03-06T17:50:55.440Z,13.02
2023-03-06T17:53:23.201Z,12.93
2023-03-06T17:55:49.795Z,12.88
2023-03-06T17:58:16.599Z,12.68
2023-03-06T18:00:43.683Z,12.52
2023-03-06T18:03:10.354Z,13.23
2023-03-06T18:05:37.723Z,12.35
2023-03-06T18:08:04.786Z,12.50
2023-03-06T18:10:31.455Z,13.00
2023-03-06T18:12:57.927Z,13.93
2023-03-06T18:15:27.169Z,13.45
2023-03-06T18:17:54.803Z,14.00
2023-03-06T18:20:21.391Z,15.10
2023-03-06T18:22:47.919Z,13.38
2023-03-06T18:25:14.456Z,12.68
2023-03-06T18:27:41.012Z,13.13
2023-03-06T18:30:08.155Z,14.43
2023-03-06T18:32:35.284Z,13.80
2023-03-06T18:35:01.910Z,13.65
2023-03-06T18:37:28.506Z,13.90
2023-03-06T18:39:55.177Z,14.07
2023-03-06T18:42:23.845Z,14.38
2023-03-06T18:44:50.409Z,15.10
2023-03-06T18:47:17.103Z,13.55
2023-03-06T18:49:45.959Z,14.15
2023-03-06T18:52:12.938Z,15.23
2023-03-06T18:54:39.688Z,13.80
2023-03-06T18:57:06.366Z,15.23
2023-03-06T18:59:33.215Z,12.95
2023-03-06T19:01:59.872Z,13.85
2023-03-06T19:04:26.726Z,14.27
2023-03-06T19:06:54.654Z,22.08
2023-03-06T19:09:22.011Z,21.52
2023-03-06T19:11:49.679Z,15.20
2023-03-06T19:14:16.816Z,12.98
2023-03-06T19:16:43.548Z,14.68
2023-03-06T19:19:10.239Z,14.48
2023-03-06T19:21:36.874Z,14.57
2023-03-06T19:24:03.507Z,14.70
2023-03-06T19:26:33.350Z,14.60
2023-03-06T19:28:59.915Z,13.18
2023-03-06T19:31:27.998Z,14.23
2023-03-06T19:33:56.645Z,15.13
2023-03-06T19:36:27.822Z,14.05
2023-03-06T19:38:58.186Z,15.00
2023-03-06T19:41:25.753Z,15.60
2023-03-06T19:43:55.157Z,15.35
2023-03-06T19:46:23.006Z,16.02
2023-03-06T19:48:57.931Z,15.18
2023-03-06T19:53:51.419Z,14.20
2023-03-06T19:56:21.276Z,15.32
2023-03-06T19:58:48.033Z,15.48
2023-03-06T20:01:17.277Z,15.95
2023-03-06T20:03:43.928Z,15.13
2023-03-06T20:06:16.499Z,15.68
2023-03-06T20:08:43.660Z,14.32
2023-03-06T20:11:21.394Z,14.95
2023-03-06T20:13:48.748Z,13.88
2023-03-06T20:16:18.848Z,14.45
2023-03-06T20:18:45.796Z,13.85
2023-03-06T20:21:12.593Z,13.27
2023-03-06T20:23:39.413Z,13.77
2023-03-06T20:26:09.706Z,15.35
2023-03-06T20:28:39.060Z,15.57
2023-03-06T20:31:09.971Z,14.43
2023-03-06T20:33:36.925Z,13.70
2023-03-06T20:36:15.423Z,14.23
2023-03-06T20:38:42.453Z,14.10
2023-03-06T20:41:20.225Z,15.70
2023-03-06T20:43:46.843Z,14.88
2023-03-06T20:46:14.757Z,14.10
2023-03-06T20:48:42.380Z,14.68
2023-03-06T20:51:16.456Z,14.88
2023-03-06T20:53:43.195Z,16.15
2023-03-06T20:56:21.508Z,15.40
2023-03-06T20:58:48.169Z,15.52
2023-03-06T21:01:23.432Z,15.15
2023-03-06T21:03:50.514Z,15.77
2023-03-06T21:06:17.664Z,15.63
2023-03-06T21:08:44.172Z,17.63
2023-03-06T21:11:11.006Z,15.85
2023-03-06T21:13:37.734Z,16.27
2023-03-06T21:16:09.862Z,16.33
2023-03-06T21:18:36.540Z,17.65
2023-03-06T21:21:18.472Z,17.02
2023-03-06T21:23:46.454Z,16.80
2023-03-06T21:26:15.056Z,18.15
2023-03-06T21:28:41.799Z,18.13
2023-03-06T21:31:12.796Z,17.42
2023-03-06T21:33:39.951Z,18.60
2023-03-06T21:36:07.164Z,18.27
2023-03-06T21:38:34.121Z,19.20
2023-03-06T21:41:09.753Z,19.10
2023-03-06T21:43:36.408Z,19.58
2023-03-06T21:46:03.028Z,19.23
2023-03-06T21:48:29.577Z,18.08
2023-03-06T21:51:15.765Z,19.23
2023-03-06T21:53:44.112Z,19.33
2023-03-06T21:56:11.920Z,19.70
2023-03-06T21:58:38.567Z,20.95
2023-03-06T22:01:13.098Z,19.60
2023-03-06T22:03:40.064Z,19.33
2023-03-06T22:06:08.624Z,19.70
2023-03-06T22:08:35.146Z,19.20
2023-03-06T22:11:06.485Z,17.33
2023-03-06T22:13:33.044Z,19.58
2023-03-06T22:15:59.600Z,19.00
2023-03-06T22:18:26.154Z,17.23
2023-03-06T22:20:52.666Z,17.98
2023-03-06T22:23:19.259Z,18.50
2023-03-06T22:25:45.812Z,18.15
2023-03-06T22:28:13.229Z,17.42
2023-03-06T22:30:39.728Z,18.15
2023-03-06T22:33:06.268Z,17.83
2023-03-06T22:35:32.969Z,17.08
2023-03-06T22:38:02.764Z,17.05
2023-03-06T22:40:29.326Z,19.27
2023-03-06T22:42:56.222Z,17.20
2023-03-06T22:45:22.975Z,18.15
2023-03-06T22:47:50.795Z,18.67
2023-03-06T22:50:18.899Z,16.42
2023-03-06T22:52:45.442Z,17.20
2023-03-06T22:55:11.983Z,17.90
2023-03-06T22:57:38.546Z,16.20
2023-03-06T23:00:07.435Z,15.05
2023-03-06T23:02:35.205Z,17.52
2023-03-06T23:05:02.019Z,17.23
2023-03-06T23:07:28.552Z,16.02
2023-03-06T23:09:55.118Z,17.25
2023-03-06T23:12:21.958Z,16.95
2023-03-06T23:14:51.108Z,17.05
2023-03-06T23:17:18.030Z,17.20
2023-03-06T23:19:44.745Z,16.30
2023-03-06T23:22:11.388Z,16.42
2023-03-06T23:24:38.016Z,15.85
2023-03-06T23:27:04.791Z,17.35
2023-03-06T23:29:31.606Z,17.02
2023-03-06T23:31:58.123Z,18.75
2023-03-06T23:34:24.716Z,18.70
2023-03-06T23:36:51.288Z,18.42
2023-03-06T23:39:18.910Z,21.05
2023-03-06T23:41:45.695Z,20.02
2023-03-06T23:44:12.227Z,20.35
2023-03-06T23:46:38.868Z,19.33
2023-03-06T23:49:06.336Z,19.45
2023-03-06T23:51:32.906Z,21.42
2023-03-06T23:54:00.441Z,21.42
2023-03-06T23:56:28.959Z,19.70
2023-03-06T23:58:55.706Z,19.83
